Time;durP1;ratioP1;P1;durP2;ratioP2;P2;SDS_P1;SDS_P2;PMS_P1;PMS_P2;Temp;Humidity;BMP_temperature;BMP_pressure;BME280_temperature;BME280_humidity;BME280_pressure;Samples;Min_cycle;Max_cycle;Signal;HPM_P1;HPM_P2
2022/03/01 00:02:15;;;;;;;11.10;8.75;;;4.40;75.40;;;;;;5109419;27;20227;-68
2022/03/01 00:04:42;;;;;;;9.90;8.65;;;4.30;75.20;;;;;;5106199;27;20227;-68
2022/03/01 00:07:09;;;;;;;10.75;9.55;;;4.30;75.20;;;;;;5106998;27;20236;-69
2022/03/01 00:09:36;;;;;;;12.07;9.57;;;4.30;75.50;;;;;;5107143;27;20214;-69
2022/03/01 00:12:06;;;;;;;11.52;8.85;;;4.20;75.20;;;;;;5110822;27;20219;-69
2022/03/01 00:14:32;;;;;;;9.70;8.70;;;4.30;75.50;;;;;;5112400;27;20214;-69
2022/03/01 00:16:59;;;;;;;11.30;8.82;;;4.30;75.60;;;;;;5104135;27;20254;-69
2022/03/01 00:19:27;;;;;;;12.73;9.27;;;4.30;75.60;;;;;;5110503;27;20215;-69
2022/03/01 00:21:58;;;;;;;11.73;9.48;;;4.30;75.80;;;;;;5110004;27;20735;-69
2022/03/01 00:24:25;;;;;;;9.35;8.32;;;4.30;75.50;;;;;;5110048;28;20219;-69
2022/03/01 00:26:52;;;;;;;13.70;10.43;;;4.30;75.50;;;;;;5109903;27;20535;-68
2022/03/01 00:29:20;;;;;;;10.52;9.02;;;4.20;75.40;;;;;;5105090;27;20576;-69
2022/03/01 00:31:47;;;;;;;10.57;9.45;;;4.30;75.60;;;;;;5114155;27;20231;-69
2022/03/01 00:34:14;;;;;;;13.50;9.52;;;4.20;75.60;;;;;;5108935;28;20222;-69
2022/03/01 00:36:41;;;;;;;12.73;9.38;;;4.20;75.20;;;;;;5113642;28;20219;-69
2022/03/01 00:39:10;;;;;;;12.55;9.15;;;4.10;75.50;;;;;;5114954;27;20230;-69
2022/03/01 00:41:37;;;;;;;14.73;9.57;;;4.10;75.80;;;;;;5110260;27;20223;-69
2022/03/01 00:44:04;;;;;;;9.93;8.68;;;4.10;75.40;;;;;;5115298;28;20317;-69
2022/03/01 00:46:33;;;;;;;12.15;9.35;;;4.00;75.50;;;;;;5100928;27;20254;-69
2022/03/01 00:49:00;;;;;;;10.57;9.27;;;3.90;75.50;;;;;;5115098;28;20223;-69
2022/03/01 00:51:29;;;;;;;10.70;8.57;;;4.00;76.00;;;;;;5108599;28;20224;-69
2022/03/01 00:53:56;;;;;;;12.32;8.88;;;4.00;76.00;;;;;;5107772;28;20219;-68
2022/03/01 00:56:23;;;;;;;10.90;8.57;;;4.00;75.80;;;;;;5101040;28;20242;-69
2022/03/01 00:58:50;;;;;;;10.60;8.38;;;4.00;75.70;;;;;;5112265;27;20583;-69
2022/03/01 01:01:17;;;;;;;15.93;9.20;;;4.00;75.70;;;;;;5110357;27;20230;-67
2022/03/01 01:03:45;;;;;;;9.32;7.93;;;4.00;75.70;;;;;;5114422;27;20227;-68
2022/03/01 01:06:12;;;;;;;14.80;9.50;;;4.00;75.80;;;;;;5101687;28;20234;-68
2022/03/01 01:08:39;;;;;;;11.90;8.45;;;4.00;75.80;;;;;;5114069;27;20227;-68
2022/03/01 01:11:06;;;;;;;12.57;9.88;;;4.00;75.80;;;;;;5113974;27;20219;-69
2022/03/01 01:13:33;;;;;;;11.20;9.15;;;4.00;75.80;;;;;;5112219;28;20223;-69
2022/03/01 01:15:59;;;;;;;13.55;9.55;;;3.90;75.90;;;;;;5099731;27;20212;-69
2022/03/01 01:18:27;;;;;;;10.60;8.32;;;3.90;76.10;;;;;;5109189;28;20223;-69
2022/03/01 01:20:55;;;;;;;11.05;8.32;;;3.90;76.30;;;;;;5112599;27;20230;-69
2022/03/01 01:23:22;;;;;;;9.27;8.32;;;4.00;76.30;;;;;;5113830;27;20215;-69
2022/03/01 01:25:49;;;;;;;11.85;9.43;;;4.00;76.30;;;;;;5113828;28;20219;-69
2022/03/01 01:28:19;;;;;;;10.60;9.50;;;4.00;77.10;;;;;;5100539;28;20211;-69
2022/03/01 01:30:45;;;;;;;10.45;9.35;;;4.00;76.40;;;;;;5113481;28;20227;-68
2022/03/01 01:33:12;;;;;;;10.60;8.90;;;4.00;76.30;;;;;;5119319;27;20219;-69
2022/03/01 01:35:39;;;;;;;10.48;8.82;;;4.00;76.20;;;;;;5107815;27;20215;-68
2022/03/01 01:38:08;;;;;;;14.45;9.55;;;4.00;76.30;;;;;;5115393;27;20222;-68
2022/03/01 01:40:36;;;;;;;13.43;8.75;;;4.00;76.20;;;;;;5122793;27;20223;-68
2022/03/01 01:43:06;;;;;;;11.63;8.75;;;4.00;76.50;;;;;;5116202;27;20219;-68
2022/03/01 01:45:33;;;;;;;11.95;9.90;;;4.00;76.30;;;;;;5125504;27;20221;-68
2022/03/01 01:48:02;;;;;;;10.13;8.98;;;4.00;76.50;;;;;;5113534;27;20983;-68
2022/03/01 01:50:30;;;;;;;12.23;8.68;;;4.00;76.60;;;;;;5119145;27;20227;-68
2022/03/01 01:52:57;;;;;;;14.95;10.52;;;3.90;76.50;;;;;;5120460;27;20255;-68
2022/03/01 01:55:27;;;;;;;9.43;8.55;;;3.90;76.30;;;;;;5112412;27;20230;-68
2022/03/01 01:57:55;;;;;;;11.70;9.70;;;3.90;76.10;;;;;;5113526;27;20223;-68
2022/03/01 02:00:22;;;;;;;11.55;9.07;;;3.90;76.20;;;;;;5113512;27;20227;-68
2022/03/01 02:02:50;;;;;;;11.15;8.35;;;3.90;76.40;;;;;;5113228;27;20250;-68
2022/03/01 02:05:17;;;;;;;10.60;8.45;;;3.90;76.80;;;;;;5113998;27;20562;-68
2022/03/01 02:07:49;;;;;;;10.55;9.05;;;3.90;76.80;;;;;;5113222;27;20595;-68
2022/03/01 02:10:16;;;;;;;16.60;10.90;;;3.90;76.60;;;;;;5113548;27;20223;-68
2022/03/01 02:12:45;;;;;;;11.82;10.23;;;3.90;76.60;;;;;;5113276;27;20223;-68
2022/03/01 02:15:12;;;;;;;12.85;9.45;;;3.90;76.90;;;;;;5113654;27;20284;-69
2022/03/01 02:17:40;;;;;;;11.35;10.15;;;3.90;77.00;;;;;;5112695;27;20227;-69
2022/03/01 02:20:12;;;;;;;13.02;10.52;;;3.90;76.90;;;;;;5113767;27;20597;-69
2022/03/01 02:22:39;;;;;;;13.02;9.48;;;3.90;76.80;;;;;;5112664;27;20226;-69
2022/03/01 02:25:07;;;;;;;12.48;9.32;;;3.80;76.80;;;;;;5113398;27;20222;-69
2022/03/01 02:27:34;;;;;;;10.13;9.02;;;3.80;76.80;;;;;;5113479;27;20215;-69
2022/03/01 02:30:01;;;;;;;14.70;9.57;;;3.70;76.80;;;;;;5112773;27;20215;-69
2022/03/01 02:32:28;;;;;;;12.65;9.30;;;3.70;76.90;;;;;;5112732;27;20226;-69
2022/03/01 02:34:55;;;;;;;12.48;10.82;;;3.70;77.10;;;;;;5112956;27;20238;-69
2022/03/01 02:37:23;;;;;;;16.63;10.75;;;3.70;77.20;;;;;;5113155;27;20227;-69
2022/03/01 02:39:50;;;;;;;11.98;9.82;;;3.70;77.30;;;;;;5112710;27;20245;-69
2022/03/01 02:42:17;;;;;;;17.40;10.85;;;3.60;77.30;;;;;;5113310;27;20676;-69
2022/03/01 02:44:44;;;;;;;10.35;8.75;;;3.60;77.30;;;;;;5112620;27;20219;-69
2022/03/01 02:47:11;;;;;;;11.85;9.50;;;3.70;77.50;;;;;;5113188;27;20234;-69
2022/03/01 02:49:37;;;;;;;12.20;10.13;;;3.60;77.50;;;;;;5113200;27;20215;-69
2022/03/01 02:52:05;;;;;;;12.60;9.93;;;3.50;77.20;;;;;;5112513;27;20233;-68
2022/03/01 02:54:33;;;;;;;12.82;10.07;;;3.50;77.30;;;;;;5113212;27;20226;-69
2022/03/01 02:57:01;;;;;;;11.63;10.13;;;3.50;77.60;;;;;;5112471;27;22376;-69
2022/03/01 02:59:29;;;;;;;12.70;10.13;;;3.40;77.60;;;;;;5113068;27;20586;-69
2022/03/01 03:01:56;;;;;;;12.75;10.93;;;3.40;77.80;;;;;;5112408;27;20230;-69
2022/03/01 03:04:23;;;;;;;11.57;9.30;;;3.40;77.60;;;;;;5112793;27;20226;-69
2022/03/01 03:06:51;;;;;;;15.50;11.85;;;3.40;77.90;;;;;;5112300;27;20223;-69
2022/03/01 03:09:17;;;;;;;10.75;9.65;;;3.40;78.10;;;;;;5113010;27;20689;-68
2022/03/01 03:11:46;;;;;;;15.32;10.82;;;3.40;78.10;;;;;;5112357;27;20227;-69
2022/03/01 03:14:12;;;;;;;12.77;9.52;;;3.30;77.90;;;;;;5112880;27;20250;-69
2022/03/01 03:16:39;;;;;;;12.68;10.38;;;3.20;78.30;;;;;;5112866;27;20242;-69
2022/03/01 03:19:07;;;;;;;10.77;9.32;;;3.20;78.30;;;;;;5112359;27;20226;-69
2022/03/01 03:21:34;;;;;;;12.98;10.23;;;3.20;78.50;;;;;;5112820;27;20222;-69
2022/03/01 03:24:01;;;;;;;14.27;10.05;;;3.30;78.70;;;;;;5112321;27;20227;-69
2022/03/01 03:26:27;;;;;;;14.40;10.10;;;3.30;78.40;;;;;;5112624;27;20230;-69
2022/03/01 03:28:56;;;;;;;14.52;9.25;;;3.20;78.40;;;;;;5112147;27;20218;-69
2022/03/01 03:31:25;;;;;;;10.50;8.30;;;3.30;78.80;;;;;;5112692;27;20219;-69
2022/03/01 03:33:52;;;;;;;13.23;10.27;;;3.30;78.70;;;;;;5112259;27;20227;-69
2022/03/01 03:36:18;;;;;;;11.95;9.43;;;3.30;78.60;;;;;;5112673;27;20223;-69
2022/03/01 03:38:45;;;;;;;10.93;9.68;;;3.20;78.70;;;;;;5112297;27;20242;-69
2022/03/01 03:41:12;;;;;;;10.07;8.32;;;3.20;78.60;;;;;;5112467;27;20688;-69
2022/03/01 03:43:39;;;;;;;13.38;10.02;;;3.30;78.80;;;;;;5114916;27;20223;-68
2022/03/01 03:46:07;;;;;;;12.35;9.63;;;3.30;78.70;;;;;;5116098;27;20223;-68
2022/03/01 03:48:34;;;;;;;10.90;8.98;;;3.30;78.90;;;;;;5116392;27;20215;-68
2022/03/01 03:51:00;;;;;;;14.55;10.18;;;3.30;79.00;;;;;;5116113;27;20538;-68
2022/03/01 03:53:27;;;;;;;12.90;10.48;;;3.30;78.90;;;;;;5116274;27;20235;-68
2022/03/01 03:55:54;;;;;;;13.05;10.90;;;3.30;79.80;;;;;;5115953;27;20547;-68
2022/03/01 03:58:21;;;;;;;14.85;10.15;;;3.30;79.10;;;;;;5116343;27;20219;-68
2022/03/01 04:00:48;;;;;;;13.45;9.40;;;3.30;79.10;;;;;;5115668;27;20235;-69
2022/03/01 04:03:17;;;;;;;11.27;9.68;;;3.30;79.10;;;;;;5116256;27;20219;-68
2022/03/01 04:05:45;;;;;;;13.15;9.60;;;3.30;78.80;;;;;;5116036;27;20229;-68
2022/03/01 04:08:13;;;;;;;11.35;9.50;;;3.30;79.00;;;;;;5115737;27;20215;-68
2022/03/01 04:10:40;;;;;;;13.93;10.05;;;3.30;78.90;;;;;;5115876;27;20243;-68
2022/03/01 04:13:07;;;;;;;14.48;9.13;;;3.30;78.90;;;;;;5115556;27;20227;-68
2022/03/01 04:15:34;;;;;;;13.05;9.50;;;3.30;78.90;;;;;;5115899;27;20223;-68
2022/03/01 04:18:01;;;;;;;11.13;9.13;;;3.30;78.70;;;;;;5115399;27;20223;-68
2022/03/01 04:20:29;;;;;;;14.68;9.38;;;3.30;78.60;;;;;;5115959;27;20223;-68
2022/03/01 04:22:56;;;;;;;11.82;10.57;;;3.40;78.80;;;;;;5115288;27;20223;-68
2022/03/01 04:25:23;;;;;;;12.60;9.35;;;3.40;78.60;;;;;;5115896;27;20219;-69
2022/03/01 04:27:50;;;;;;;13.25;9.70;;;3.40;78.60;;;;;;5115275;27;20226;-68
2022/03/01 04:30:17;;;;;;;11.73;8.70;;;3.40;78.30;;;;;;5115426;27;20219;-68
2022/03/01 04:32:46;;;;;;;12.57;8.98;;;3.40;78.50;;;;;;5115838;27;20234;-68
2022/03/01 04:35:13;;;;;;;13.70;10.00;;;3.30;78.40;;;;;;5115275;27;20574;-68
2022/03/01 04:37:43;;;;;;;14.20;8.70;;;3.30;78.00;;;;;;5115398;27;20231;-68
2022/03/01 04:40:12;;;;;;;13.23;8.73;;;3.30;78.10;;;;;;5114922;27;20242;-68
2022/03/01 04:42:40;;;;;;;10.48;8.80;;;3.30;78.20;;;;;;5115550;27;20218;-68
2022/03/01 04:45:09;;;;;;;13.30;9.50;;;3.30;77.70;;;;;;5114836;27;20224;-68
2022/03/01 04:47:37;;;;;;;13.07;9.43;;;3.30;77.90;;;;;;5115149;27;20303;-68
2022/03/01 04:50:04;;;;;;;11.05;9.30;;;3.30;78.10;;;;;;5114894;27;20284;-68
2022/03/01 04:52:31;;;;;;;10.45;8.85;;;3.30;77.90;;;;;;5115281;27;20557;-69
2022/03/01 04:54:59;;;;;;;9.75;8.75;;;3.30;77.80;;;;;;5113956;27;20227;-68
2022/03/01 04:57:26;;;;;;;14.10;9.88;;;3.30;77.90;;;;;;5115151;27;20241;-68
2022/03/01 04:59:53;;;;;;;12.75;9.52;;;3.30;77.60;;;;;;5114497;27;20410;-69
2022/03/01 05:02:20;;;;;;;13.93;8.63;;;3.30;77.60;;;;;;5114998;27;20223;-68
2022/03/01 05:04:47;;;;;;;15.68;9.35;;;3.30;77.60;;;;;;5114989;27;20222;-69
2022/03/01 05:07:13;;;;;;;11.18;9.73;;;3.30;77.40;;;;;;5114344;27;20219;-69
2022/03/01 05:09:40;;;;;;;11.60;8.15;;;3.20;77.50;;;;;;5115058;27;20681;-68
2022/03/01 05:12:09;;;;;;;13.18;9.95;;;3.20;77.50;;;;;;5114269;27;20235;-69
2022/03/01 05:14:35;;;;;;;10.48;9.13;;;3.20;77.40;;;;;;5114774;27;20234;-69
2022/03/01 05:17:03;;;;;;;9.80;8.10;;;3.10;77.20;;;;;;5114339;27;20230;-69
2022/03/01 05:19:30;;;;;;;11.88;8.48;;;3.20;77.80;;;;;;5114750;27;20565;-69
2022/03/01 05:21:58;;;;;;;12.52;8.75;;;3.10;77.70;;;;;;5114064;27;20688;-69
2022/03/01 05:24:27;;;;;;;12.40;9.88;;;3.10;77.80;;;;;;5114764;27;20303;-69
2022/03/01 05:26:54;;;;;;;19.17;9.90;;;3.10;77.70;;;;;;5114093;27;20325;-69
2022/03/01 05:29:22;;;;;;;11.38;8.90;;;3.10;77.70;;;;;;5114455;27;20219;-69
2022/03/01 05:31:49;;;;;;;11.10;9.35;;;3.10;77.80;;;;;;5114564;27;20699;-69
2022/03/01 05:34:17;;;;;;;12.25;8.90;;;3.10;77.60;;;;;;5113960;27;20215;-69
2022/03/01 05:36:43;;;;;;;11.40;9.40;;;3.20;77.70;;;;;;5114414;27;20411;-69
2022/03/01 05:39:10;;;;;;;11.73;8.95;;;3.20;77.60;;;;;;5113874;27;20230;-69
2022/03/01 05:41:37;;;;;;;15.95;8.63;;;3.20;77.50;;;;;;5114241;27;20223;-69
2022/03/01 05:44:05;;;;;;;13.05;9.25;;;3.10;77.30;;;;;;5113776;27;20223;-68
2022/03/01 05:46:34;;;;;;;15.55;9.63;;;3.00;77.20;;;;;;5114086;27;20219;-68
2022/03/01 05:49:00;;;;;;;11.32;9.40;;;3.10;77.30;;;;;;5113750;27;20664;-68
2022/03/01 05:51:28;;;;;;;12.63;9.00;;;3.00;77.30;;;;;;5113887;27;20568;-68
2022/03/01 05:53:55;;;;;;;11.95;9.65;;;3.00;77.60;;;;;;5113774;27;20259;-68
2022/03/01 05:56:22;;;;;;;12.00;9.23;;;3.10;77.90;;;;;;5113937;27;20677;-69
2022/03/01 05:58:49;;;;;;;13.20;9.55;;;3.10;77.80;;;;;;5114005;27;20219;-69
2022/03/01 06:01:16;;;;;;;12.27;8.50;;;3.10;77.60;;;;;;5113167;27;20603;-69
2022/03/01 06:03:44;;;;;;;11.23;8.55;;;3.10;77.50;;;;;;5113824;27;20225;-69
2022/03/01 06:06:12;;;;;;;13.48;9.25;;;3.10;77.40;;;;;;5112596;27;20566;-69
2022/03/01 06:08:39;;;;;;;11.18;9.20;;;3.10;77.10;;;;;;5113707;27;20245;-69
2022/03/01 06:11:06;;;;;;;10.23;9.18;;;3.10;77.30;;;;;;5112970;27;20310;-69
2022/03/01 06:13:33;;;;;;;12.35;8.23;;;3.10;77.50;;;;;;5113780;27;20223;-69
2022/03/01 06:16:01;;;;;;;11.30;9.63;;;3.10;77.50;;;;;;5113108;27;20648;-69
2022/03/01 06:18:28;;;;;;;10.32;8.32;;;3.20;77.30;;;;;;5113535;27;20231;-69
2022/03/01 06:20:56;;;;;;;16.05;9.05;;;3.20;77.30;;;;;;5113505;27;20227;-69
2022/03/01 06:23:24;;;;;;;11.15;8.70;;;3.20;77.20;;;;;;5113194;27;20220;-69
2022/03/01 06:25:51;;;;;;;10.80;9.00;;;3.20;77.30;;;;;;5113326;27;20223;-69
2022/03/01 06:28:17;;;;;;;13.82;9.77;;;3.20;77.40;;;;;;5112943;27;20227;-69
2022/03/01 06:30:44;;;;;;;14.55;10.32;;;3.10;77.30;;;;;;5113241;27;20715;-69
2022/03/01 06:33:11;;;;;;;12.02;9.02;;;3.10;77.30;;;;;;5112821;27;20704;-69
2022/03/01 06:35:38;;;;;;;12.88;9.10;;;3.10;77.20;;;;;;5113393;27;20237;-69
2022/03/01 06:38:06;;;;;;;13.20;9.90;;;3.10;77.30;;;;;;5112802;27;20559;-69
2022/03/01 06:40:33;;;;;;;11.77;8.57;;;3.20;77.60;;;;;;5113155;27;20685;-69
2022/03/01 06:43:00;;;;;;;11.65;9.75;;;3.20;77.20;;;;;;5112825;27;20702;-69
2022/03/01 06:45:27;;;;;;;11.32;8.80;;;3.20;77.20;;;;;;5113313;27;20347;-70
2022/03/01 06:47:54;;;;;;;12.77;8.80;;;3.30;77.20;;;;;;5113050;27;20753;-69
2022/03/01 06:50:22;;;;;;;16.67;9.55;;;3.30;77.20;;;;;;5112564;27;20227;-69
2022/03/01 06:52:49;;;;;;;17.17;10.63;;;3.30;77.10;;;;;;5113048;27;20589;-69
2022/03/01 06:55:17;;;;;;;13.75;8.98;;;3.30;76.70;;;;;;5112630;27;20639;-69
2022/03/01 06:57:44;;;;;;;15.65;10.38;;;3.30;76.90;;;;;;5113157;27;20241;-69
2022/03/01 07:00:13;;;;;;;13.57;10.02;;;3.30;77.10;;;;;;5112460;27;20238;-69
2022/03/01 07:02:41;;;;;;;13.98;8.93;;;3.40;76.50;;;;;;5113043;27;20237;-69
2022/03/01 07:05:09;;;;;;;11.20;10.02;;;3.40;76.20;;;;;;5112448;27;20253;-69
2022/03/01 07:07:37;;;;;;;13.52;9.77;;;3.40;76.30;;;;;;5112718;27;20226;-69
2022/03/01 07:10:05;;;;;;;14.85;9.35;;;3.40;76.40;;;;;;5112424;27;20699;-69
2022/03/01 07:12:33;;;;;;;16.55;9.65;;;3.50;76.70;;;;;;5112915;27;20565;-69
2022/03/01 07:15:00;;;;;;;12.20;9.23;;;3.50;76.70;;;;;;5112874;27;20222;-70
2022/03/01 07:17:27;;;;;;;12.20;10.02;;;3.60;76.60;;;;;;5112764;27;20214;-69
2022/03/01 07:19:54;;;;;;;18.20;10.18;;;3.50;76.20;;;;;;5117062;27;20571;-69
2022/03/01 07:22:21;;;;;;;17.85;9.73;;;3.60;76.20;;;;;;5116617;27;20234;-69
2022/03/01 07:24:47;;;;;;;16.50;9.55;;;3.60;76.20;;;;;;5117096;27;20231;-69
2022/03/01 07:27:14;;;;;;;12.25;9.75;;;3.70;76.30;;;;;;5116430;27;20226;-69
2022/03/01 07:29:42;;;;;;;19.02;12.23;;;3.80;76.30;;;;;;5116832;27;20230;-70
2022/03/01 07:32:10;;;;;;;16.63;9.57;;;3.80;76.30;;;;;;5116411;27;20223;-69
2022/03/01 07:34:38;;;;;;;11.32;9.45;;;3.90;75.70;;;;;;5116640;27;20695;-68
2022/03/01 07:37:07;;;;;;;17.65;11.40;;;3.90;74.80;;;;;;5116277;27;20238;-69
2022/03/01 07:39:34;;;;;;;17.65;12.10;;;3.80;74.30;;;;;;5116906;27;20218;-69
2022/03/01 07:42:01;;;;;;;16.15;10.98;;;3.90;74.30;;;;;;5116592;27;20235;-68
2022/03/01 07:44:27;;;;;;;13.63;9.48;;;3.90;74.10;;;;;;5116122;27;20242;-69
2022/03/01 07:46:56;;;;;;;13.93;9.60;;;3.80;73.80;;;;;;5116679;27;20223;-69
2022/03/01 07:49:23;;;;;;;9.48;8.48;;;3.80;74.10;;;;;;5115929;27;20234;-69
2022/03/01 07:51:50;;;;;;;16.25;9.05;;;3.80;73.60;;;;;;5116110;27;20227;-69
2022/03/01 07:54:17;;;;;;;12.57;9.80;;;3.80;73.70;;;;;;5116083;27;20241;-69
2022/03/01 07:56:43;;;;;;;11.60;9.80;;;3.80;74.40;;;;;;5116256;27;20223;-69
2022/03/01 07:59:10;;;;;;;12.48;9.02;;;3.90;74.10;;;;;;5115946;27;20223;-69
2022/03/01 08:01:37;;;;;;;15.13;8.65;;;3.90;73.90;;;;;;5116124;27;20643;-69
2022/03/01 08:04:05;;;;;;;12.45;8.70;;;4.00;73.90;;;;;;5116148;27;20223;-69
2022/03/01 08:06:32;;;;;;;11.50;8.93;;;4.00;73.40;;;;;;5116042;27;20210;-69
2022/03/01 08:08:59;;;;;;;15.57;9.70;;;4.00;73.40;;;;;;5115876;27;20238;-69
2022/03/01 08:11:26;;;;;;;11.95;8.93;;;4.10;73.20;;;;;;5115446;27;20222;-69
2022/03/01 08:13:53;;;;;;;10.95;8.95;;;4.10;73.50;;;;;;5116268;27;20246;-69
2022/03/01 08:16:20;;;;;;;11.45;8.35;;;4.10;73.60;;;;;;5115454;27;20223;-69
2022/03/01 08:18:47;;;;;;;14.43;8.63;;;4.20;73.00;;;;;;5115798;27;20280;-69
2022/03/01 08:21:16;;;;;;;8.50;7.63;;;4.30;73.30;;;;;;5115505;27;20740;-69
2022/03/01 08:23:42;;;;;;;9.13;8.02;;;4.40;73.60;;;;;;5115577;27;20223;-70
2022/03/01 08:26:10;;;;;;;10.57;7.60;;;4.50;73.80;;;;;;5115259;27;20654;-69
2022/03/01 08:28:36;;;;;;;13.45;9.23;;;4.60;74.00;;;;;;5115693;27;20223;-69
2022/03/01 08:31:09;;;;;;;11.57;8.98;;;4.70;73.50;;;;;;5114712;27;20713;-69
2022/03/01 08:33:36;;;;;;;15.90;10.35;;;4.70;73.40;;;;;;5115339;27;20211;-70
2022/03/01 08:36:03;;;;;;;18.27;11.43;;;4.80;73.40;;;;;;5115717;27;20669;-69
2022/03/01 08:38:31;;;;;;;15.23;12.13;;;4.80;73.00;;;;;;5115085;27;20234;-70
2022/03/01 08:40:58;;;;;;;13.32;9.02;;;4.80;72.00;;;;;;5115422;27;20241;-68
2022/03/01 08:43:25;;;;;;;8.10;7.10;;;4.90;71.50;;;;;;5115000;27;20226;-68
2022/03/01 08:45:52;;;;;;;9.18;7.15;;;5.00;71.70;;;;;;5115378;27;20223;-68
2022/03/01 08:48:19;;;;;;;14.13;8.27;;;5.10;71.70;;;;;;5114835;27;20223;-68
2022/03/01 08:50:46;;;;;;;11.35;9.07;;;5.20;71.00;;;;;;5115530;27;20253;-68
2022/03/01 08:53:13;;;;;;;12.13;7.50;;;5.20;71.50;;;;;;5114786;27;20227;-68
2022/03/01 08:55:42;;;;;;;9.25;8.30;;;5.30;71.50;;;;;;5115333;27;20223;-68
2022/03/01 08:58:12;;;;;;;13.68;8.43;;;5.40;71.50;;;;;;5115347;27;20388;-68
2022/03/01 09:00:39;;;;;;;10.45;9.45;;;5.50;71.60;;;;;;5114709;27;20219;-68
2022/03/01 09:03:06;;;;;;;9.88;7.30;;;5.60;71.30;;;;;;5115195;27;20669;-69
2022/03/01 09:05:33;;;;;;;10.23;8.18;;;5.70;70.80;;;;;;5114786;27;20233;-68
2022/03/01 09:08:00;;;;;;;9.63;8.30;;;5.70;69.40;;;;;;5114975;27;20246;-68
2022/03/01 09:10:28;;;;;;;9.48;8.55;;;5.80;69.60;;;;;;5114571;27;20237;-68
2022/03/01 09:12:57;;;;;;;10.02;8.30;;;5.80;69.70;;;;;;5114964;27;20304;-68
2022/03/01 09:15:25;;;;;;;12.70;8.93;;;5.90;69.60;;;;;;5114416;27;20219;-68
2022/03/01 09:17:52;;;;;;;9.50;7.10;;;5.90;69.50;;;;;;5115025;27;20626;-68
2022/03/01 09:20:20;;;;;;;14.65;7.38;;;6.00;69.40;;;;;;5114606;27;20223;-68
2022/03/01 09:22:46;;;;;;;13.70;9.13;;;6.00;68.00;;;;;;5114791;27;20253;-68
2022/03/01 09:25:13;;;;;;;10.65;7.70;;;6.10;67.90;;;;;;5114851;27;20219;-68
2022/03/01 09:27:40;;;;;;;9.80;8.80;;;6.10;67.50;;;;;;5114149;27;20310;-69
2022/03/01 09:30:10;;;;;;;10.27;8.10;;;6.20;67.50;;;;;;5114507;27;20235;-68
2022/03/01 09:32:37;;;;;;;10.05;8.90;;;6.20;67.50;;;;;;5114256;27;20231;-68
2022/03/01 09:35:05;;;;;;;11.50;7.35;;;6.30;68.00;;;;;;5114499;27;20246;-69
2022/03/01 09:37:32;;;;;;;16.23;10.00;;;6.40;67.80;;;;;;5113914;27;20249;-68
2022/03/01 09:39:59;;;;;;;11.00;9.90;;;6.40;66.90;;;;;;5114589;27;20215;-69
2022/03/01 09:42:27;;;;;;;9.82;8.77;;;6.50;67.20;;;;;;5113753;27;20216;-68
2022/03/01 09:44:55;;;;;;;11.32;9.27;;;6.60;67.10;;;;;;5114490;27;20219;-68
2022/03/01 09:47:23;;;;;;;9.52;7.57;;;6.70;67.40;;;;;;5113839;27;20215;-69
2022/03/01 09:49:51;;;;;;;9.27;7.80;;;6.70;66.20;;;;;;5114195;27;20230;-68
2022/03/01 09:52:19;;;;;;;10.63;7.55;;;6.80;66.10;;;;;;5113769;27;20239;-68
2022/03/01 09:54:47;;;;;;;13.00;9.25;;;6.70;64.80;;;;;;5114181;27;20230;-68
2022/03/01 09:57:14;;;;;;;10.90;8.15;;;6.70;65.00;;;;;;5114098;27;20218;-68
2022/03/01 09:59:41;;;;;;;9.48;7.35;;;6.80;65.40;;;;;;5113642;27;20607;-68
2022/03/01 10:02:09;;;;;;;7.93;7.03;;;6.90;65.50;;;;;;5113700;27;20227;-68
2022/03/01 10:04:50;;;;;;;10.35;7.00;;;7.00;65.30;;;;;;5113514;27;20241;-69
2022/03/01 10:07:22;;;;;;;11.48;8.25;;;7.10;64.20;;;;;;5113786;27;20215;-69
2022/03/01 10:09:49;;;;;;;12.38;7.63;;;7.20;64.10;;;;;;5113506;27;21469;-68
2022/03/01 10:12:23;;;;;;;9.50;8.50;;;7.30;64.00;;;;;;5113824;27;20235;-69
2022/03/01 10:14:58;;;;;;;7.47;6.72;;;7.30;63.10;;;;;;5113304;27;20223;-69
2022/03/01 10:17:25;;;;;;;13.43;9.20;;;7.30;61.30;;;;;;5113744;27;20215;-69
2022/03/01 10:20:04;;;;;;;10.65;8.30;;;7.40;61.10;;;;;;5113521;27;20569;-69
2022/03/01 10:22:30;;;;;;;8.73;7.70;;;7.40;61.30;;;;;;5113214;27;20219;-69
2022/03/01 10:25:04;;;;;;;8.15;6.22;;;7.50;59.60;;;;;;5113621;27;20219;-69
2022/03/01 10:27:31;;;;;;;7.65;6.85;;;7.50;59.50;;;;;;5113024;27;20226;-69
2022/03/01 10:29:58;;;;;;;11.38;7.95;;;7.60;59.70;;;;;;5113551;27;20229;-69
2022/03/01 10:32:25;;;;;;;11.07;7.65;;;7.60;59.00;;;;;;5113488;27;20223;-69
2022/03/01 10:35:02;;;;;;;12.70;8.95;;;7.70;60.00;;;;;;5112975;27;20229;-69
2022/03/01 10:37:29;;;;;;;17.33;9.40;;;7.80;60.80;;;;;;5112994;27;20241;-69
2022/03/01 10:40:20;;;;;;;10.32;7.57;;;7.80;59.80;;;;;;5113240;27;20265;-69
2022/03/01 10:42:59;;;;;;;9.35;7.50;;;7.90;60.50;;;;;;5112758;27;20223;-69
2022/03/01 10:45:34;;;;;;;8.38;7.40;;;8.00;61.10;;;;;;5113154;27;20246;-69
2022/03/01 10:48:01;;;;;;;8.85;6.80;;;8.10;61.80;;;;;;5112693;27;20219;-69
2022/03/01 10:50:29;;;;;;;6.50;5.75;;;8.10;59.70;;;;;;5113223;27;20223;-69
2022/03/01 10:52:56;;;;;;;6.90;6.20;;;8.30;58.80;;;;;;5112150;27;20226;-69
2022/03/01 10:55:25;;;;;;;8.90;7.07;;;8.30;58.70;;;;;;5113016;27;20229;-69
2022/03/01 10:58:08;;;;;;;7.00;6.15;;;8.20;55.50;;;;;;5112649;27;20258;-69
2022/03/01 11:00:36;;;;;;;9.02;6.18;;;8.30;56.30;;;;;;5112980;27;20225;-69
2022/03/01 11:03:05;;;;;;;7.07;6.38;;;8.40;56.70;;;;;;5112679;27;20215;-69
2022/03/01 11:05:34;;;;;;;7.50;5.35;;;8.40;56.30;;;;;;5112893;27;20279;-68
2022/03/01 11:08:03;;;;;;;6.18;5.57;;;8.50;56.10;;;;;;5112392;27;20222;-68
2022/03/01 11:10:32;;;;;;;8.60;6.75;;;8.50;55.50;;;;;;5112839;27;20219;-69
2022/03/01 11:13:00;;;;;;;7.30;6.50;;;8.50;55.00;;;;;;5112386;27;23107;-68
2022/03/01 11:15:47;;;;;;;7.72;6.95;;;8.50;54.40;;;;;;5112752;27;20223;-69
2022/03/01 11:18:37;;;;;;;8.23;6.25;;;8.50;54.20;;;;;;5112446;27;20215;-68
2022/03/01 11:21:06;;;;;;;8.45;6.28;;;8.60;54.60;;;;;;5112238;27;20227;-69
2022/03/01 11:23:34;;;;;;;6.70;6.10;;;8.60;55.10;;;;;;5112427;27;20223;-69
2022/03/01 11:26:09;;;;;;;9.60;8.02;;;8.60;54.80;;;;;;5112213;27;20215;-69
2022/03/01 11:28:40;;;;;;;10.13;8.40;;;8.60;55.40;;;;;;5112630;27;20222;-69
2022/03/01 11:31:22;;;;;;;9.43;7.28;;;8.60;55.50;;;;;;5112210;27;20310;-68
2022/03/01 11:33:57;;;;;;;9.07;7.35;;;8.60;55.00;;;;;;5112781;27;20325;-68
2022/03/01 11:36:28;;;;;;;8.23;6.50;;;8.60;55.60;;;;;;5112465;27;20997;-68
2022/03/01 11:38:55;;;;;;;9.25;6.63;;;8.70;54.90;;;;;;5112474;27;20246;-69
2022/03/01 11:41:22;;;;;;;6.85;6.15;;;8.70;54.40;;;;;;5112225;27;20221;-69
2022/03/01 11:43:55;;;;;;;8.43;6.90;;;8.70;54.00;;;;;;5112626;27;20284;-69
2022/03/01 11:46:22;;;;;;;8.73;6.35;;;8.80;54.10;;;;;;5112111;27;20279;-68
2022/03/01 11:48:53;;;;;;;7.85;7.00;;;8.70;53.30;;;;;;5111928;27;20397;-69
2022/03/01 11:51:31;;;;;;;8.57;6.40;;;8.70;54.00;;;;;;5122649;27;20231;-69
2022/03/01 11:54:02;;;;;;;9.70;7.32;;;8.70;53.90;;;;;;5112122;28;20218;-69
2022/03/01 11:56:31;;;;;;;7.88;7.13;;;8.70;53.40;;;;;;5112152;27;21008;-69
2022/03/01 11:59:05;;;;;;;7.53;6.50;;;8.70;52.90;;;;;;5112304;27;20227;-69
2022/03/01 12:01:33;;;;;;;6.22;5.72;;;8.70;53.00;;;;;;5111109;27;21008;-68
2022/03/01 12:04:01;;;;;;;8.30;6.45;;;8.80;53.60;;;;;;5112381;27;20228;-68
2022/03/01 12:06:30;;;;;;;8.05;6.50;;;8.80;53.40;;;;;;5115418;27;20572;-69
2022/03/01 12:08:59;;;;;;;7.32;6.40;;;8.80;53.40;;;;;;5115962;27;20235;-69
2022/03/01 12:11:34;;;;;;;7.05;6.35;;;8.90;53.70;;;;;;5115474;27;20227;-69
2022/03/01 12:14:05;;;;;;;7.65;6.78;;;8.90;53.00;;;;;;5115993;27;20226;-68
2022/03/01 12:16:33;;;;;;;6.47;5.72;;;8.90;52.90;;;;;;5115528;27;20219;-68
2022/03/01 12:19:12;;;;;;;6.00;5.40;;;9.00;52.50;;;;;;5115912;27;20227;-68
2022/03/01 12:21:40;;;;;;;13.68;6.28;;;9.10;52.60;;;;;;5115600;27;20238;-67
2022/03/01 12:24:08;;;;;;;7.80;6.28;;;9.10;52.30;;;;;;5115606;27;20226;-68
2022/03/01 12:26:45;;;;;;;6.30;5.70;;;9.10;51.80;;;;;;5115465;27;20269;-69
2022/03/01 12:29:13;;;;;;;8.52;7.03;;;9.20;52.10;;;;;;5115739;27;20306;-69
2022/03/01 12:31:40;;;;;;;9.48;8.48;;;9.20;52.00;;;;;;5115334;27;20219;-70
2022/03/01 12:34:10;;;;;;;6.30;5.70;;;9.30;52.10;;;;;;5115608;27;20223;-69
2022/03/01 12:36:40;;;;;;;7.75;5.97;;;9.30;52.00;;;;;;5115315;27;20227;-69
2022/03/01 12:39:13;;;;;;;6.70;5.78;;;9.20;50.80;;;;;;5115266;27;20695;-68
2022/03/01 12:41:41;;;;;;;6.28;5.57;;;9.10;51.00;;;;;;5114872;27;20227;-69
2022/03/01 12:44:10;;;;;;;6.10;5.30;;;9.20;51.20;;;;;;5115519;27;20223;-69
2022/03/01 12:46:38;;;;;;;6.65;5.95;;;9.20;50.90;;;;;;5126408;27;20222;-69
2022/03/01 12:49:09;;;;;;;6.43;5.55;;;9.30;51.40;;;;;;5110419;27;20563;-69
2022/03/01 12:51:37;;;;;;;7.32;6.53;;;9.30;51.90;;;;;;5104331;27;20215;-69
2022/03/01 12:54:07;;;;;;;5.15;4.65;;;9.30;51.40;;;;;;5096802;28;20224;-69